Time;durP1;ratioP1;P1;durP2;ratioP2;P2;SDS_P1;SDS_P2;PMS_P1;PMS_P2;Temp;Humidity;BMP_temperature;BMP_pressure;BME280_temperature;BME280_humidity;BME280_pressure;Samples;Min_cycle;Max_cycle;Signal;HPM_P1;HPM_P2
2021/12/26 00:01:05;0.00;0.00;0.62;0.00;0.00;0.62;1.60;1.23;;;19.30;25.60;;;;;;2261256;61;20709;-59
2021/12/26 00:03:50;0.00;0.00;0.62;0.00;0.00;0.62;1.67;1.07;;;19.30;25.60;;;;;;2260684;61;20579;-59
2021/12/26 00:06:35;0.00;0.00;0.62;0.00;0.00;0.62;2.33;1.40;;;19.30;25.60;;;;;;2261205;61;20607;-59
2021/12/26 00:09:19;0.00;0.00;0.62;0.00;0.00;0.62;2.00;1.30;;;19.30;25.70;;;;;;2260823;61;20391;-60
2021/12/26 00:12:05;0.00;0.00;0.62;0.00;0.00;0.62;1.73;1.10;;;19.30;25.70;;;;;;2261203;61;20362;-60
2021/12/26 00:14:50;0.00;0.00;0.62;0.00;0.00;0.62;1.70;1.10;;;19.30;25.70;;;;;;2261535;61;20365;-60
2021/12/26 00:17:36;0.00;0.00;0.62;0.00;0.00;0.62;1.50;0.93;;;19.30;25.80;;;;;;2260396;61;20382;-56
2021/12/26 00:20:21;0.00;0.00;0.62;0.00;0.00;0.62;2.40;1.10;;;19.30;25.80;;;;;;2262166;61;20361;-57
2021/12/26 00:23:07;0.00;0.00;0.62;0.00;0.00;0.62;2.10;1.10;;;19.30;25.80;;;;;;2261630;61;20618;-56
2021/12/26 00:25:52;0.00;0.00;0.62;0.00;0.00;0.62;2.10;1.10;;;19.30;25.80;;;;;;2261140;61;20409;-60
2021/12/26 00:28:37;0.00;0.00;0.62;0.00;0.00;0.62;1.40;0.90;;;19.30;25.90;;;;;;2262053;61;20373;-58
2021/12/26 00:31:22;0.00;0.00;0.62;0.00;0.00;0.62;1.40;0.90;;;19.30;25.90;;;;;;2261640;61;20772;-59
2021/12/26 00:34:08;0.00;0.00;0.62;0.00;0.00;0.62;1.97;1.20;;;19.30;25.90;;;;;;2262026;61;20362;-59
2021/12/26 00:36:52;0.00;0.00;0.62;0.00;0.00;0.62;2.60;0.97;;;19.30;26.00;;;;;;2261819;61;20385;-58
2021/12/26 00:39:37;0.00;0.00;0.62;0.00;0.00;0.62;2.07;1.10;;;19.30;26.00;;;;;;2260889;61;20404;-57
2021/12/26 00:42:22;0.00;0.00;0.62;0.00;0.00;0.62;1.53;0.97;;;19.30;26.00;;;;;;2261916;61;20381;-58
2021/12/26 00:45:08;0.00;0.00;0.62;0.00;0.00;0.62;1.93;1.00;;;19.30;26.00;;;;;;2261535;61;20628;-60
2021/12/26 00:47:53;0.00;0.00;0.62;0.00;0.00;0.62;1.73;1.10;;;19.30;26.10;;;;;;2258159;61;20401;-57
2021/12/26 00:50:42;0.00;0.00;0.62;0.00;0.00;0.62;2.00;1.17;;;19.30;26.00;;;;;;2261812;61;20454;-61
2021/12/26 00:53:28;0.00;0.00;0.62;0.00;0.00;0.62;1.63;1.00;;;19.30;26.00;;;;;;2261752;61;20362;-59
2021/12/26 00:56:13;0.00;0.00;0.62;0.00;0.00;0.62;1.70;1.10;;;19.30;26.00;;;;;;2258500;61;20440;-61
2021/12/26 00:58:57;0.00;0.00;0.62;0.00;0.00;0.62;1.87;1.03;;;19.30;26.00;;;;;;2261228;61;20500;-58
2021/12/26 01:01:42;0.00;0.00;0.62;0.00;0.00;0.62;1.70;1.10;;;19.30;26.00;;;;;;2257737;61;20377;-57
2021/12/26 01:04:27;0.00;0.00;0.62;0.00;0.00;0.62;1.77;1.10;;;19.30;26.10;;;;;;2258686;61;20385;-60
2021/12/26 01:07:25;0.00;0.00;0.62;0.00;0.00;0.62;1.80;1.30;;;19.30;26.10;;;;;;2261377;61;20389;-60
2021/12/26 01:10:10;0.00;0.00;0.62;0.00;0.00;0.62;1.80;1.00;;;19.30;26.10;;;;;;2258240;61;20562;-60
2021/12/26 01:12:55;0.00;0.00;0.62;0.00;0.00;0.62;1.67;1.00;;;19.30;26.10;;;;;;2261649;61;20698;-57
2021/12/26 01:15:43;0.00;0.00;0.62;0.00;0.00;0.62;1.50;0.90;;;19.20;26.60;;;;;;2258304;61;20362;-60
2021/12/26 01:18:42;0.00;0.00;0.62;0.00;0.00;0.62;1.57;1.00;;;19.30;26.10;;;;;;2258902;61;20366;-61
2021/12/26 01:21:27;0.00;0.00;0.62;0.00;0.00;0.62;2.70;1.07;;;19.20;26.00;;;;;;2258802;61;20719;-58
2021/12/26 01:24:23;0.00;0.00;0.62;0.00;0.00;0.62;1.37;0.83;;;19.20;26.00;;;;;;2258127;61;20628;-61
2021/12/26 01:27:09;0.00;0.00;0.62;0.00;0.00;0.62;1.60;0.90;;;19.20;26.00;;;;;;2261411;61;20774;-60
2021/12/26 01:29:54;0.00;0.00;0.62;0.00;0.00;0.62;1.57;0.90;;;19.30;26.10;;;;;;2258512;61;20381;-57
2021/12/26 01:32:39;0.00;0.00;0.62;0.00;0.00;0.62;1.93;1.07;;;19.20;26.00;;;;;;2257949;61;20431;-59
2021/12/26 01:35:33;0.00;0.00;0.62;0.00;0.00;0.62;1.40;1.00;;;19.20;26.10;;;;;;2258366;61;20773;-59
2021/12/26 01:38:38;0.00;0.00;0.62;0.00;0.00;0.62;1.50;0.90;;;19.30;26.10;;;;;;2257540;61;20357;-58
2021/12/26 01:41:39;0.00;0.00;0.62;0.00;0.00;0.62;1.50;1.00;;;19.30;26.10;;;;;;2261548;61;20386;-59
2021/12/26 01:44:50;0.00;0.00;0.62;0.00;0.00;0.62;1.70;1.00;;;19.20;26.00;;;;;;2258184;61;20428;-60
2021/12/26 01:47:38;0.00;0.00;0.62;0.00;0.00;0.62;1.30;0.80;;;19.30;26.10;;;;;;2257937;61;20382;-60
2021/12/26 01:50:22;0.00;0.00;0.62;0.00;0.00;0.62;1.43;0.93;;;19.30;26.10;;;;;;2258560;61;20367;-60
2021/12/26 01:53:07;0.00;0.00;0.62;0.00;0.00;0.62;1.97;1.20;;;19.20;26.00;;;;;;2257793;61;20362;-59
2021/12/26 01:55:54;0.00;0.00;0.62;0.00;0.00;0.62;2.00;0.90;;;19.20;26.10;;;;;;2258498;61;20368;-59
2021/12/26 01:58:40;0.00;0.00;0.62;0.00;0.00;0.62;1.80;1.13;;;19.20;26.00;;;;;;2258931;61;20358;-60
2021/12/26 02:01:38;0.00;0.00;0.62;0.00;0.00;0.62;1.60;1.10;;;19.20;26.00;;;;;;2257724;61;20390;-58
2021/12/26 02:04:27;0.00;0.00;0.62;0.00;0.00;0.62;1.30;0.80;;;19.20;26.00;;;;;;2258517;61;20397;-60
2021/12/26 02:07:13;0.00;0.00;0.62;0.00;0.00;0.62;1.57;0.90;;;19.20;26.00;;;;;;2261540;61;20379;-60
2021/12/26 02:10:00;0.00;0.00;0.62;0.00;0.00;0.62;1.67;1.00;;;19.20;26.00;;;;;;2260614;61;20412;-59
2021/12/26 02:12:45;0.00;0.00;0.62;0.00;0.00;0.62;2.00;1.10;;;19.20;26.00;;;;;;2258554;61;20515;-58
2021/12/26 02:15:32;0.00;0.00;0.62;0.00;0.00;0.62;1.30;0.80;;;19.20;26.00;;;;;;2257304;61;20366;-59
2021/12/26 02:18:21;0.00;0.00;0.62;0.00;0.00;0.62;1.50;0.90;;;19.20;26.00;;;;;;2258386;61;20404;-59
2021/12/26 02:24:25;0.00;0.00;0.62;0.00;0.00;0.62;2.13;1.00;;;19.20;26.00;;;;;;2257708;61;20430;-59
2021/12/26 02:30:16;0.00;0.00;0.62;0.00;0.00;0.62;1.50;0.90;;;19.20;26.00;;;;;;2260535;61;20424;-58
2021/12/26 02:33:07;0.00;0.00;0.62;0.00;0.00;0.62;1.50;1.00;;;19.20;26.10;;;;;;2258328;61;20358;-61
2021/12/26 02:35:53;0.00;0.00;0.62;0.00;0.00;0.62;1.63;0.90;;;19.20;26.00;;;;;;2258160;61;20362;-60
2021/12/26 02:38:39;0.00;0.00;0.62;0.00;0.00;0.62;1.80;1.00;;;19.20;26.00;;;;;;2257638;61;20354;-55
2021/12/26 02:41:24;0.00;0.00;0.62;0.00;0.00;0.62;1.37;0.80;;;19.10;26.00;;;;;;2258308;61;20413;-59
2021/12/26 02:44:09;0.00;0.00;0.62;0.00;0.00;0.62;1.53;0.90;;;19.20;26.10;;;;;;2258173;61;20398;-59
2021/12/26 02:46:56;0.00;0.00;0.62;0.00;0.00;0.62;1.93;1.47;;;19.10;26.00;;;;;;2257734;61;20602;-58
2021/12/26 02:49:41;0.00;0.00;0.62;0.00;0.00;0.62;1.80;1.00;;;19.10;26.00;;;;;;2261198;61;20570;-55
2021/12/26 02:52:25;0.00;0.00;0.62;0.00;0.00;0.62;2.60;1.20;;;19.20;26.00;;;;;;2260455;61;20710;-60
2021/12/26 02:55:13;0.00;0.00;0.62;0.00;0.00;0.62;1.53;1.20;;;19.10;26.00;;;;;;2258409;61;20433;-58
2021/12/26 02:58:01;0.00;0.00;0.62;0.00;0.00;0.62;2.07;1.10;;;19.10;26.00;;;;;;2260982;61;20496;-60
2021/12/26 03:00:51;0.00;0.00;0.62;0.00;0.00;0.62;1.40;1.20;;;19.10;26.00;;;;;;2257781;61;20612;-59
2021/12/26 03:03:36;0.00;0.00;0.62;0.00;0.00;0.62;1.73;1.10;;;19.10;26.00;;;;;;2261542;61;20381;-59
2021/12/26 03:06:38;0.00;0.00;0.62;0.00;0.00;0.62;1.60;1.00;;;19.10;26.00;;;;;;2260975;61;20401;-59
2021/12/26 03:09:23;0.00;0.00;0.62;0.00;0.00;0.62;1.43;1.00;;;19.10;26.00;;;;;;2258281;61;20585;-56
2021/12/26 03:12:09;0.00;0.00;0.62;0.00;0.00;0.62;2.07;1.10;;;19.10;26.00;;;;;;2261578;61;20477;-56
2021/12/26 03:14:54;0.00;0.00;0.62;0.00;0.00;0.62;1.83;1.10;;;19.10;26.00;;;;;;2260353;61;20725;-58
2021/12/26 03:17:41;0.00;0.00;0.62;0.00;0.00;0.62;1.80;1.17;;;19.10;26.00;;;;;;2258340;61;20378;-57
2021/12/26 03:20:31;0.00;0.00;0.62;0.00;0.00;0.62;1.53;1.00;;;19.00;25.90;;;;;;2258114;61;20434;-60
2021/12/26 03:23:20;0.00;0.00;0.62;0.00;0.00;0.62;1.37;0.87;;;19.00;25.90;;;;;;2260927;61;20691;-59
2021/12/26 03:26:08;0.00;0.00;0.62;0.00;0.00;0.62;1.70;1.07;;;19.00;25.90;;;;;;2260776;61;20754;-59
2021/12/26 03:28:55;0.00;0.00;0.62;0.00;0.00;0.62;1.40;1.00;;;19.00;25.90;;;;;;2258072;61;20404;-57
2021/12/26 03:31:41;0.00;0.00;0.62;0.00;0.00;0.62;1.60;0.90;;;19.00;25.90;;;;;;2258196;61;20374;-56
2021/12/26 03:34:31;0.00;0.00;0.62;0.00;0.00;0.62;1.50;0.80;;;19.00;25.90;;;;;;2258222;61;20576;-59
2021/12/26 03:37:19;0.00;0.00;0.62;0.00;0.00;0.62;1.83;0.93;;;19.00;25.90;;;;;;2257256;61;20381;-57
2021/12/26 03:40:05;0.00;0.00;0.62;0.00;0.00;0.62;2.47;1.10;;;19.00;25.90;;;;;;2258203;61;20365;-59
2021/12/26 03:42:52;0.00;0.00;0.62;0.00;0.00;0.62;1.70;0.97;;;19.00;25.90;;;;;;2257983;61;20389;-59
2021/12/26 03:45:40;0.00;0.00;0.62;0.00;0.00;0.62;1.40;0.83;;;19.00;25.90;;;;;;2260762;61;20369;-57
2021/12/26 03:48:27;0.00;0.00;0.62;0.00;0.00;0.62;1.50;0.90;;;19.00;25.90;;;;;;2258037;61;20366;-59
2021/12/26 03:51:12;0.00;0.00;0.62;0.00;0.00;0.62;1.50;0.90;;;19.00;25.90;;;;;;2258030;61;20389;-58
2021/12/26 03:53:57;0.00;0.00;0.62;0.00;0.00;0.62;1.40;0.90;;;19.00;25.90;;;;;;2261713;61;20358;-57
2021/12/26 03:56:43;0.00;0.00;0.62;0.00;0.00;0.62;1.40;0.90;;;19.00;25.90;;;;;;2258825;61;20384;-60
2021/12/26 03:59:32;0.00;0.00;0.62;0.00;0.00;0.62;1.50;0.80;;;19.00;25.90;;;;;;2258187;61;20365;-58
2021/12/26 04:02:18;0.00;0.00;0.62;0.00;0.00;0.62;1.60;1.00;;;18.90;25.80;;;;;;2261467;61;20606;-57
2021/12/26 04:05:04;0.00;0.00;0.62;0.00;0.00;0.62;1.63;1.00;;;18.90;25.80;;;;;;2258663;61;20381;-60
2021/12/26 04:07:49;0.00;0.00;0.62;0.00;0.00;0.62;1.30;0.80;;;18.90;25.80;;;;;;2258199;61;20480;-56
2021/12/26 04:10:35;0.00;0.00;0.62;0.00;0.00;0.62;1.30;0.80;;;18.90;25.90;;;;;;2258840;61;20412;-58
2021/12/26 04:13:20;0.00;0.00;0.62;0.00;0.00;0.62;2.80;1.10;;;18.90;25.80;;;;;;2258766;61;20386;-58
2021/12/26 04:16:05;0.00;0.00;0.62;0.00;0.00;0.62;1.50;0.80;;;18.90;25.80;;;;;;2258667;61;20749;-57
2021/12/26 04:18:52;0.00;0.00;0.62;0.00;0.00;0.62;1.80;1.20;;;18.90;25.80;;;;;;2258844;61;20721;-59
2021/12/26 04:21:37;0.00;0.00;0.62;0.00;0.00;0.62;1.40;1.00;;;18.90;25.80;;;;;;2260706;61;20366;-56
2021/12/26 04:24:22;0.00;0.00;0.62;0.00;0.00;0.62;1.30;0.80;;;18.90;25.80;;;;;;2258817;61;20637;-57
2021/12/26 04:27:07;0.00;0.00;0.62;0.00;0.00;0.62;1.50;1.00;;;18.90;25.80;;;;;;2261773;61;20700;-59
2021/12/26 04:29:53;0.00;0.00;0.62;0.00;0.00;0.62;1.20;0.80;;;18.90;25.80;;;;;;2258300;61;20783;-58
2021/12/26 04:32:38;0.00;0.00;0.62;0.00;0.00;0.62;1.50;0.90;;;18.90;25.80;;;;;;2258694;61;20358;-60
2021/12/26 04:35:25;0.00;0.00;0.62;0.00;0.00;0.62;1.80;1.07;;;18.90;25.80;;;;;;2261825;61;20439;-56
2021/12/26 04:38:11;0.00;0.00;0.62;0.00;0.00;0.62;2.43;0.80;;;18.90;25.80;;;;;;2258332;61;20365;-60
2021/12/26 04:40:56;0.00;0.00;0.62;0.00;0.00;0.62;1.60;1.00;;;18.90;25.80;;;;;;2262037;61;20358;-55
2021/12/26 04:43:41;0.00;0.00;0.62;0.00;0.00;0.62;1.50;0.80;;;18.90;25.80;;;;;;2260983;61;20385;-54
2021/12/26 04:46:46;0.00;0.00;0.62;0.00;0.00;0.62;1.70;1.00;;;18.80;25.80;;;;;;2261636;61;20405;-58
2021/12/26 04:49:37;0.00;0.00;0.62;0.00;0.00;0.62;1.60;0.83;;;18.80;25.80;;;;;;2258776;61;20396;-56
2021/12/26 04:52:23;0.00;0.00;0.62;0.00;0.00;0.62;1.47;0.93;;;18.80;25.80;;;;;;2257956;61;20377;-55
2021/12/26 04:55:08;0.00;0.00;0.62;0.00;0.00;0.62;1.50;1.00;;;18.80;25.80;;;;;;2258672;61;20470;-57
2021/12/26 04:57:53;0.00;0.00;0.62;0.00;0.00;0.62;1.40;0.80;;;18.80;25.80;;;;;;2258492;61;20420;-58
2021/12/26 05:00:38;0.00;0.00;0.62;0.00;0.00;0.62;1.30;0.80;;;18.80;25.80;;;;;;2261983;61;20713;-57
2021/12/26 05:03:23;0.00;0.00;0.62;0.00;0.00;0.62;1.30;0.70;;;18.80;25.80;;;;;;2261925;61;20377;-60
2021/12/26 05:06:09;0.00;0.00;0.62;0.00;0.00;0.62;1.70;0.97;;;18.80;25.80;;;;;;2260374;61;20404;-58
2021/12/26 05:08:55;0.00;0.00;0.62;0.00;0.00;0.62;1.30;0.80;;;18.80;25.80;;;;;;2261817;61;20404;-58
2021/12/26 05:11:40;0.00;0.00;0.62;0.00;0.00;0.62;1.33;0.90;;;18.80;25.80;;;;;;2261678;61;20603;-57
2021/12/26 05:14:25;0.00;0.00;0.62;0.00;0.00;0.62;1.40;0.80;;;18.80;25.80;;;;;;2258001;61;20358;-53
2021/12/26 05:17:09;0.00;0.00;0.62;0.00;0.00;0.62;1.40;0.80;;;18.80;25.80;;;;;;2261856;61;20385;-60
2021/12/26 05:19:54;0.00;0.00;0.62;0.00;0.00;0.62;1.30;0.80;;;18.80;25.80;;;;;;2258419;61;20622;-60
2021/12/26 05:22:40;0.00;0.00;0.62;0.00;0.00;0.62;1.73;0.83;;;18.80;25.80;;;;;;2258396;61;20374;-57
2021/12/26 05:25:27;0.00;0.00;0.62;0.00;0.00;0.62;1.57;0.80;;;18.80;25.80;;;;;;2258670;61;20393;-57
2021/12/26 05:28:11;0.00;0.00;0.62;0.00;0.00;0.62;1.30;0.70;;;18.70;25.70;;;;;;2260609;61;20366;-58
2021/12/26 05:30:56;0.00;0.00;0.62;0.00;0.00;0.62;1.33;0.80;;;18.70;25.70;;;;;;2258715;61;20353;-59
2021/12/26 05:33:44;0.00;0.00;0.62;0.00;0.00;0.62;1.40;0.70;;;18.70;25.70;;;;;;2258480;61;20369;-58
2021/12/26 05:36:29;0.00;0.00;0.62;0.00;0.00;0.62;1.30;0.70;;;18.70;25.70;;;;;;2257852;61;20724;-55
2021/12/26 05:39:14;0.00;0.00;0.62;0.00;0.00;0.62;1.30;0.80;;;18.70;25.70;;;;;;2258592;61;20473;-62
2021/12/26 05:42:01;0.00;0.00;0.62;0.00;0.00;0.62;1.37;0.90;;;18.70;25.80;;;;;;2258379;61;20424;-56
2021/12/26 05:44:51;0.00;0.00;0.62;0.00;0.00;0.62;1.63;0.90;;;18.70;25.80;;;;;;2261701;61;20901;-57
2021/12/26 05:47:36;0.00;0.00;0.62;0.00;0.00;0.62;1.30;0.90;;;18.70;25.70;;;;;;2258493;61;20413;-59
2021/12/26 05:50:24;0.00;0.00;0.62;0.00;0.00;0.62;1.30;0.70;;;18.70;26.30;;;;;;2257570;61;20624;-58
2021/12/26 05:53:09;0.00;0.00;0.62;0.00;0.00;0.62;1.67;0.90;;;18.70;25.70;;;;;;2258478;61;20787;-60
2021/12/26 05:55:53;0.00;0.00;0.62;0.00;0.00;0.62;1.40;0.90;;;18.70;25.70;;;;;;2258231;61;20472;-56
2021/12/26 05:58:40;0.00;0.00;0.62;0.00;0.00;0.62;1.23;0.73;;;18.70;25.70;;;;;;2257863;61;20486;-59
2021/12/26 06:01:25;0.00;0.00;0.62;0.00;0.00;0.62;1.70;0.90;;;18.70;25.70;;;;;;2261636;61;20398;-57
2021/12/26 06:04:10;0.00;0.00;0.62;0.00;0.00;0.62;1.40;0.80;;;18.60;25.60;;;;;;2258398;61;20443;-58
2021/12/26 06:06:55;0.00;0.00;0.62;0.00;0.00;0.62;1.30;0.80;;;18.70;25.70;;;;;;2257991;61;20433;-59
2021/12/26 06:09:41;0.00;0.00;0.62;0.00;0.00;0.62;1.60;0.83;;;18.60;25.60;;;;;;2258572;61;20366;-58
2021/12/26 06:12:26;0.00;0.00;0.62;0.00;0.00;0.62;1.40;0.80;;;18.60;25.60;;;;;;2257463;61;20765;-58
2021/12/26 06:15:13;0.00;0.00;0.62;0.00;0.00;0.62;1.50;0.90;;;18.60;25.70;;;;;;2258303;61;20369;-58
2021/12/26 06:17:57;0.00;0.00;0.62;0.00;0.00;0.62;1.60;0.87;;;18.60;25.60;;;;;;2255565;61;20381;-60
2021/12/26 06:21:11;0.00;0.00;0.62;0.00;0.00;0.62;1.53;0.83;;;18.60;25.70;;;;;;2251528;61;20408;-59
2021/12/26 06:24:02;0.00;0.00;0.62;0.00;0.00;0.62;1.40;0.80;;;18.60;25.70;;;;;;2261444;61;20397;-57
2021/12/26 06:26:50;0.00;0.00;0.62;0.00;0.00;0.62;2.70;0.93;;;18.60;25.70;;;;;;2260862;61;20386;-59
2021/12/26 06:29:55;0.00;0.00;0.62;0.00;0.00;0.62;1.30;0.70;;;18.60;25.70;;;;;;2261569;61;20366;-59
2021/12/26 06:32:59;0.00;0.00;0.62;0.00;0.00;0.62;1.43;0.90;;;18.60;25.80;;;;;;2261351;61;20353;-57
2021/12/26 06:36:03;0.00;0.00;0.62;0.00;0.00;0.62;1.50;0.90;;;18.60;25.80;;;;;;2260882;61;20613;-57
2021/12/26 06:39:06;0.00;0.00;0.62;0.00;0.00;0.62;1.40;0.80;;;18.60;26.30;;;;;;2261617;61;20361;-59
2021/12/26 06:42:10;0.00;0.00;0.62;0.00;0.00;0.62;1.30;0.77;;;18.60;25.80;;;;;;2260592;61;20381;-60
2021/12/26 06:44:58;0.00;0.00;0.62;0.00;0.00;0.62;1.50;0.83;;;18.50;25.80;;;;;;2261359;61;20362;-58
2021/12/26 06:47:57;0.00;0.00;0.62;0.00;0.00;0.62;1.50;0.87;;;18.50;25.70;;;;;;2258099;61;20409;-60
2021/12/26 06:50:46;0.00;0.00;0.62;0.00;0.00;0.62;2.03;0.93;;;18.50;25.80;;;;;;2257703;61;20438;-58
2021/12/26 06:53:30;0.00;0.00;0.62;0.00;0.00;0.62;1.77;1.07;;;18.50;25.80;;;;;;2261530;61;20424;-56
2021/12/26 06:56:15;0.00;0.00;0.62;0.00;0.00;0.62;1.80;0.77;;;18.50;25.80;;;;;;2261171;61;20398;-58
2021/12/26 06:58:59;0.00;0.00;0.62;0.00;0.00;0.62;1.60;0.93;;;18.50;25.80;;;;;;2258411;61;20579;-55
2021/12/26 07:01:44;0.00;0.00;0.62;0.00;0.00;0.62;1.30;0.70;;;18.50;25.80;;;;;;2258440;61;20341;-58
2021/12/26 07:04:32;0.00;0.00;0.62;0.00;0.00;0.62;2.10;0.97;;;18.50;25.80;;;;;;2257281;61;20366;-57
2021/12/26 07:07:20;0.00;0.00;0.62;0.00;0.00;0.62;1.40;0.97;;;18.50;25.80;;;;;;2258311;61;20385;-57
2021/12/26 07:10:06;0.00;0.00;0.62;0.00;0.00;0.62;1.50;0.80;;;18.50;25.80;;;;;;2258125;61;20378;-59
2021/12/26 07:12:51;0.00;0.00;0.62;0.00;0.00;0.62;1.40;0.70;;;18.50;25.80;;;;;;2260337;61;20363;-58
2021/12/26 07:15:46;0.00;0.00;0.62;0.00;0.00;0.62;1.20;0.70;;;18.50;25.80;;;;;;2258225;61;20365;-60
2021/12/26 07:18:31;0.00;0.00;0.62;0.00;0.00;0.62;1.53;0.90;;;18.50;25.80;;;;;;2257917;61;20448;-57
2021/12/26 07:21:16;0.00;0.00;0.62;0.00;0.00;0.62;1.20;0.73;;;18.50;25.80;;;;;;2258680;61;20366;-58
2021/12/26 07:24:18;0.00;0.00;0.62;0.00;0.00;0.62;1.30;0.90;;;18.50;25.80;;;;;;2258400;61;20634;-59
2021/12/26 07:27:04;0.00;0.00;0.62;0.00;0.00;0.62;1.30;0.70;;;18.50;25.80;;;;;;2257410;61;20420;-59
2021/12/26 07:30:10;0.00;0.00;0.62;0.00;0.00;0.62;1.30;0.80;;;18.40;25.70;;;;;;2261459;61;20368;-57
2021/12/26 07:32:55;0.00;0.00;0.62;0.00;0.00;0.62;1.30;0.80;;;18.40;25.80;;;;;;2258029;61;20608;-59
2021/12/26 07:35:40;0.00;0.00;0.62;0.00;0.00;0.62;1.40;0.90;;;18.40;25.80;;;;;;2257825;61;20817;-56
2021/12/26 07:38:45;0.00;0.00;0.62;0.00;0.00;0.62;1.40;0.80;;;18.40;25.80;;;;;;2261332;61;20366;-59
2021/12/26 07:41:31;0.00;0.00;0.62;0.00;0.00;0.62;1.30;0.80;;;18.40;25.80;;;;;;2260553;61;20390;-56
2021/12/26 07:44:15;0.00;0.00;0.62;0.00;0.00;0.62;1.50;0.90;;;18.40;25.80;;;;;;2258294;61;20358;-57
2021/12/26 07:47:19;0.00;0.00;0.62;0.00;0.00;0.62;1.33;0.77;;;18.40;25.80;;;;;;2261026;61;20405;-55
2021/12/26 07:50:06;0.00;0.00;0.62;0.00;0.00;0.62;1.20;0.70;;;18.40;25.80;;;;;;2257713;61;20357;-59
2021/12/26 07:53:11;0.00;0.00;0.62;0.00;0.00;0.62;1.93;1.10;;;18.40;25.80;;;;;;2261149;61;20378;-59
2021/12/26 07:56:14;0.00;0.00;0.62;0.00;0.00;0.62;2.37;2.00;;;18.40;25.80;;;;;;2260352;61;20649;-58
2021/12/26 07:59:19;0.00;0.00;0.62;0.00;0.00;0.62;4.20;3.43;;;18.40;25.50;;;;;;2261229;61;20428;-55
2021/12/26 08:02:23;0.00;0.00;0.62;0.00;0.00;0.62;4.73;3.80;;;18.30;23.90;;;;;;2261324;61;20810;-57
2021/12/26 08:05:27;0.00;0.00;0.62;0.00;0.00;0.62;5.83;5.23;;;18.20;22.70;;;;;;2261067;61;20369;-56
2021/12/26 08:08:23;0.00;0.00;0.62;0.00;0.00;0.62;4.60;3.93;;;18.00;21.90;;;;;;2258303;61;20362;-56
2021/12/26 08:11:09;0.00;0.00;0.62;0.00;0.00;0.62;3.50;2.90;;;17.90;22.40;;;;;;2260184;61;20678;-60
2021/12/26 08:13:53;0.00;0.00;0.62;0.00;0.00;0.62;4.27;3.47;;;17.80;22.90;;;;;;2257991;61;20385;-57
2021/12/26 08:16:40;0.00;0.00;0.62;0.00;0.00;0.62;4.77;3.23;;;17.70;23.30;;;;;;2261652;61;20440;-58
2021/12/26 08:19:24;0.00;0.00;0.62;0.00;0.00;0.62;3.10;2.67;;;17.70;23.70;;;;;;2264699;61;20356;-54
2021/12/26 08:22:09;0.00;0.00;0.62;0.00;0.00;0.62;3.77;2.47;;;17.60;23.90;;;;;;2265228;61;20380;-61
2021/12/26 08:24:53;0.00;0.00;0.62;0.00;0.00;0.62;3.23;2.20;;;17.60;24.10;;;;;;2265091;61;20399;-60
2021/12/26 08:27:38;0.00;0.00;0.62;0.00;0.00;0.62;3.50;3.00;;;17.60;24.20;;;;;;2264961;61;20419;-56
2021/12/26 08:30:24;0.00;0.00;0.62;0.00;0.00;0.62;3.80;2.50;;;17.60;24.40;;;;;;2262311;61;20764;-55
2021/12/26 08:33:10;0.00;0.00;0.62;0.00;0.00;0.62;2.40;1.90;;;17.60;24.40;;;;;;2264446;61;20360;-55
2021/12/26 08:35:55;0.00;0.00;0.62;0.00;0.00;0.62;3.80;2.30;;;17.70;24.60;;;;;;2262053;61;20354;-58
2021/12/26 08:38:40;0.00;0.00;0.62;0.00;0.00;0.62;2.80;2.10;;;17.70;24.70;;;;;;2262134;61;20368;-60
2021/12/26 08:41:25;0.00;0.00;0.62;0.00;0.00;0.62;3.20;2.30;;;17.70;24.80;;;;;;2265411;61;20716;-58
2021/12/26 08:44:16;0.00;0.00;0.62;0.00;0.00;0.62;2.63;2.17;;;17.70;25.00;;;;;;2266029;61;20373;-59
2021/12/26 08:47:02;0.00;0.00;0.62;0.00;0.00;0.62;2.40;1.70;;;17.70;25.00;;;;;;2265803;61;20458;-55
2021/12/26 08:49:49;0.00;0.00;0.62;0.00;0.00;0.62;2.07;1.67;;;17.70;25.00;;;;;;2265981;61;20353;-58
2021/12/26 08:52:34;0.00;0.00;0.62;0.00;0.00;0.62;2.90;1.87;;;17.80;25.10;;;;;;2266015;61;20357;-57
2021/12/26 08:55:21;0.00;0.00;0.62;0.00;0.00;0.62;2.60;1.70;;;17.80;25.10;;;;;;2264906;61;20419;-59
2021/12/26 08:58:06;0.00;0.00;0.62;0.00;0.00;0.62;2.40;1.40;;;17.80;25.10;;;;;;2266002;61;20745;-54
2021/12/26 09:00:50;0.00;0.00;0.62;0.00;0.00;0.62;2.10;1.70;;;17.80;25.10;;;;;;2265854;61;20588;-56
2021/12/26 09:03:37;0.00;0.00;0.62;0.00;0.00;0.62;2.00;1.57;;;17.90;25.10;;;;;;2265280;61;20754;-54
2021/12/26 09:06:23;0.00;0.00;0.62;0.00;0.00;0.62;1.83;1.40;;;17.90;25.10;;;;;;2265765;61;20447;-54
2021/12/26 09:09:10;0.00;0.00;0.62;0.00;0.00;0.62;1.90;1.40;;;17.90;25.10;;;;;;2265855;61;20597;-57
2021/12/26 09:11:55;0.00;0.00;0.62;0.00;0.00;0.62;2.30;1.70;;;18.00;25.20;;;;;;2262863;61;20420;-59
2021/12/26 09:14:40;0.00;0.00;0.62;0.00;0.00;0.62;2.17;1.70;;;18.00;25.20;;;;;;2261964;61;20385;-58
2021/12/26 09:17:24;0.00;0.00;0.62;0.00;0.00;0.62;1.83;1.37;;;18.00;25.20;;;;;;2261183;61;20450;-58
2021/12/26 09:20:10;0.00;0.00;0.62;0.00;0.00;0.62;2.40;1.10;;;18.10;25.30;;;;;;2261964;61;20417;-58
2021/12/26 09:22:56;0.00;0.00;0.62;0.00;0.00;0.62;2.00;1.30;;;18.10;25.30;;;;;;2261682;61;20417;-57
2021/12/26 09:25:41;0.00;0.00;0.62;0.00;0.00;0.62;2.20;1.43;;;18.10;25.30;;;;;;2261347;61;20452;-56
2021/12/26 09:28:26;0.00;0.00;0.62;0.00;0.00;0.62;2.40;1.53;;;18.20;25.30;;;;;;2261943;61;20557;-59
2021/12/26 09:31:10;0.00;0.00;0.62;0.00;0.00;0.62;2.30;1.53;;;18.20;25.30;;;;;;2261549;61;20354;-56
2021/12/26 09:33:55;0.00;0.00;0.62;0.00;0.00;0.62;2.87;1.53;;;18.20;25.30;;;;;;2261113;61;20430;-51
2021/12/26 09:36:39;0.00;0.00;0.62;0.00;0.00;0.62;3.00;1.73;;;18.30;25.40;;;;;;2261833;61;20753;-56
2021/12/26 09:39:26;0.00;0.00;0.62;0.00;0.00;0.62;2.00;1.50;;;18.30;25.40;;;;;;2260984;61;20366;-58
2021/12/26 09:42:10;0.00;0.00;0.62;0.00;0.00;0.62;4.00;1.93;;;18.30;26.00;;;;;;2262286;61;20810;-55
2021/12/26 09:44:58;0.00;0.00;0.62;0.00;0.00;0.62;2.93;1.80;;;18.40;25.50;;;;;;2258884;61;20361;-56
2021/12/26 09:47:43;0.00;0.00;0.62;0.00;0.00;0.62;2.67;1.50;;;18.40;25.50;;;;;;2261472;61;20392;-56
2021/12/26 09:50:27;0.00;0.00;0.62;0.00;0.00;0.62;2.20;1.60;;;18.40;25.50;;;;;;2262004;61;20613;-56
2021/12/26 09:53:12;0.00;0.00;0.62;0.00;0.00;0.62;4.93;1.50;;;18.50;25.50;;;;;;2261801;61;20462;-56
2021/12/26 09:55:58;0.00;0.00;0.62;0.00;0.00;0.62;2.10;1.30;;;18.50;25.50;;;;;;2261435;61;20404;-56
2021/12/26 09:58:53;0.00;0.00;0.62;0.00;0.00;0.62;2.30;1.73;;;18.60;25.60;;;;;;2262004;61;20366;-55
2021/12/26 10:01:41;0.00;0.00;0.62;0.00;0.00;0.62;1.40;0.90;;;18.60;25.60;;;;;;2261127;61;20457;-56
2021/12/26 10:04:28;0.00;0.00;0.62;0.00;0.00;0.62;2.40;1.43;;;18.60;25.60;;;;;;2262123;61;20350;-54
2021/12/26 10:07:16;0.00;0.00;0.62;0.00;0.00;0.62;1.90;1.40;;;18.60;25.60;;;;;;2261786;61;20493;-57
2021/12/26 10:10:07;0.00;0.00;0.62;0.00;0.00;0.62;1.73;1.17;;;18.70;25.70;;;;;;2261479;61;20354;-53
2021/12/26 10:12:53;0.00;0.00;0.62;0.00;0.00;0.62;1.90;1.40;;;18.70;25.70;;;;;;2262051;61;20640;-56
2021/12/26 10:15:47;0.00;0.00;0.62;0.00;0.00;0.62;2.03;1.07;;;18.80;25.80;;;;;;2261691;61;20363;-55
2021/12/26 10:18:32;0.00;0.00;0.62;0.00;0.00;0.62;2.17;1.20;;;18.80;25.80;;;;;;2261537;61;20404;-56
2021/12/26 10:21:42;0.00;0.00;0.62;0.00;0.00;0.62;1.50;1.00;;;18.80;25.80;;;;;;2262120;61;20729;-53
2021/12/26 10:24:30;0.00;0.00;0.62;0.00;0.00;0.62;2.00;1.37;;;18.80;25.80;;;;;;2260303;61;20397;-56
2021/12/26 10:27:19;0.00;0.00;0.62;0.00;0.00;0.62;1.90;1.10;;;18.90;25.80;;;;;;2261964;61;20788;-54
2021/12/26 10:30:07;0.00;0.00;0.62;0.00;0.00;0.62;3.70;1.60;;;18.90;25.80;;;;;;2261712;61;20343;-54
2021/12/26 10:32:59;0.00;0.00;0.62;0.00;0.00;0.62;2.17;1.30;;;18.90;25.80;;;;;;2261335;61;20354;-57
2021/12/26 10:35:44;0.00;0.00;0.62;0.00;0.00;0.62;1.83;1.10;;;19.00;25.90;;;;;;2261958;61;20378;-53
2021/12/26 10:38:28;0.00;0.00;0.62;0.00;0.00;0.62;1.90;1.10;;;19.00;25.90;;;;;;2258093;61;20341;-54
2021/12/26 10:41:24;0.00;0.00;0.62;0.00;0.00;0.62;2.00;1.40;;;19.00;25.90;;;;;;2258883;61;20397;-59
2021/12/26 10:44:26;0.00;0.00;0.62;0.00;0.00;0.62;2.40;1.30;;;19.10;26.00;;;;;;2261982;61;20382;-57
2021/12/26 10:47:16;0.00;0.00;0.62;0.00;0.00;0.62;1.97;1.20;;;19.10;26.00;;;;;;2261213;61;20409;-54
2021/12/26 10:50:06;0.00;0.00;0.62;0.00;0.00;0.62;2.93;1.43;;;19.10;26.00;;;;;;2261979;61;20366;-57
2021/12/26 10:52:55;0.00;0.00;0.62;0.00;0.00;0.62;2.20;1.60;;;19.20;26.00;;;;;;2261519;61;20351;-56
2021/12/26 10:55:43;0.00;0.00;0.62;0.00;0.00;0.62;1.50;1.10;;;19.20;26.00;;;;;;2261543;61;20408;-54
2021/12/26 10:58:28;0.00;0.00;0.62;0.00;0.00;0.62;2.07;1.20;;;19.20;26.00;;;;;;2262018;61;20669;-57
2021/12/26 11:01:15;0.00;0.00;0.62;0.00;0.00;0.62;1.63;1.10;;;19.30;26.00;;;;;;2260843;61;20409;-57
2021/12/26 11:04:06;0.00;0.00;0.62;0.00;0.00;0.62;2.17;1.30;;;19.30;25.80;;;;;;2261886;61;20410;-56
2021/12/26 11:07:02;0.00;0.00;0.62;0.00;0.00;0.62;2.10;1.40;;;19.30;25.80;;;;;;2261479;61;20393;-53
2021/12/26 11:10:00;0.00;0.00;0.62;0.00;0.00;0.62;1.50;1.20;;;19.40;25.70;;;;;;2261293;61;20638;-58